• Join FlightAware (Why Join?)
  • Login
  • US Flag 
01:36PM EDT


 

Airport Tracker/Info


-or-


 

Live Flight TrackerFlight Track Log ✈ EGF2566 ✈ 19-Apr-2013 ✈ KBTR - KDFW

Flight Track Log - Related Links

Times and Time Zones

All times are in EDT time to prevent confusion due to time zone crossing. See the EGF2566 flight status page for this flight to view local times or setup timezone preferences in your user account.

Time Position Orientation Groundspeed Altitude Reporting Facility
EDT Latitude Longitude Course Direction KTS MPH feet Rate Location/Type
08:05PM 30.6675 -91.4605 297° West  Level Estimated
08:06PM 30.7010 -91.5383 297° West  Level Estimated
08:07PM 30.7345 -91.6161 297° West  Level Estimated
08:08PM 30.7679 -91.6940 297° West  Level Estimated
08:09PM 30.8013 -91.7720 297° West  Level Estimated
08:10PM 30.8346 -91.8500 296° West  Level Estimated
08:11PM 30.8679 -91.9280 296° West  Level Estimated
08:12PM 30.9011 -92.0062 296° West  Level Estimated
08:13PM 30.9343 -92.0843 296° West  Level Estimated
08:14PM 30.9675 -92.1626 296° West  Level Estimated
08:15PM 31.0006 -92.2408 296° West  Level Estimated
08:16PM 31.0336 -92.3192 296° West  Level Estimated
08:17PM 31.0667 -92.3976 296° West  Level Estimated
08:18PM 31.0996 -92.4760 296° West  Level Estimated
08:19PM 31.1325 -92.5545 296° West  Level Estimated
08:20PM 31.1654 -92.6330 296° West  Level Estimated
08:21PM 31.1982 -92.7116 296° West  Level Estimated
08:22PM 31.2310 -92.7903 296° West  Level Estimated
08:23PM 31.2637 -92.8690 296° West  Level Estimated
08:24PM 31.2964 -92.9478 296° West  Level Estimated
08:25PM 31.3290 -93.0266 296° West  Level Estimated
08:26PM 31.3616 -93.1055 296° West  Level Estimated
08:27PM 31.3941 -93.1844 296° West  Level Estimated
08:28PM 31.4266 -93.2634 296° West  Level Estimated
08:29PM 31.4590 -93.3425 296° West  Level Estimated
08:30PM 31.4914 -93.4215 296° West  Level Estimated
08:31PM 31.5237 -93.5007 296° West  Level Estimated
08:32PM 31.5560 -93.5799 296° West  Level Estimated
08:33PM 31.5882 -93.6592 296° West  Level Estimated
08:34PM 31.6204 -93.7385 295° West  Level Estimated
08:35PM 31.6526 -93.8179 295° West  Level Estimated
08:36PM 31.6847 -93.8973 295° West  Level Estimated
08:37PM 31.7167 -93.9768 295° West  Level Estimated
08:38PM 31.7487 -94.0563 295° West  Level Estimated
08:39PM 31.7806 -94.1359 295° West  Level Estimated
08:40PM 31.8125 -94.2155 295° West  Level Estimated
08:41PM 31.8444 -94.2952 295° West  Level Estimated
08:42PM 31.8762 -94.3750 295° West  Level Estimated
08:43PM 31.9079 -94.4548 295° West  Level Estimated
08:44PM 31.9396 -94.5346 295° West  Level Estimated
08:45PM 31.9712 -94.6146 295° West  Level Estimated
08:46PM 32.0028 -94.6945 295° West  Level Estimated
08:47PM 32.0344 -94.7746 295° West  Level Estimated
08:48PM 32.0658 -94.8546 295° West  Level Estimated
08:49PM 32.0973 -94.9348 295° West  Level Estimated
08:50PM 32.1287 -95.0150 295° West  Level Estimated
08:51PM 32.1600 -95.0952 295° West  Level Estimated
08:52PM 32.1913 -95.1755 295° West  Level Estimated
08:53PM 32.2225 -95.2559 295° West  Level Estimated
08:54PM 32.2537 -95.3363 295° West  Level Estimated
08:55PM 32.2849 -95.4168 295° West  Level Estimated
08:56PM 32.3160 -95.4973 295° West  Level Estimated
08:57PM 32.3470 -95.5779 295° West  Level Estimated
08:58PM 32.3780 -95.6585 294° West  Level Estimated
08:59PM 32.4089 -95.7392 294° West  Level Estimated
09:00PM 32.4398 -95.8200 294° West  Level Estimated
09:01PM 32.4706 -95.9008 294° West  Level Estimated
09:02PM 32.5014 -95.9816 294° West  Level Estimated
09:03PM 32.5321 -96.0626 294° West  Level Estimated
09:04PM 32.5628 -96.1435 294° West  Level Estimated